Accueil
METAR-TAF:

METAR-TAF

Aéroports :

Sabadell, Espagne

latitude: 41-31N, longitude: 002-06E, altitude: 250 m

Observation

Le bulletin a été fait il y a 33 minutes, à 12:00 UTC
Vent 5 kt de ouest/sud-ouest, variant entre sud/sud-est et ouest/nord-ouest
Température 10°C
Humidité 46%
Pression 1006 hPa
Visibilité 10 km ou plus
pas de nuages en-dessous de 1500 mètres et pas de cumulonimbus.

METAR: LELL 231200Z 24005KT 160V290 CAVOK 10/M01 Q1006

Heure: 13:33 (12:33 UTC)

Prévision

Le bulletin a été fait il y a 4 heures et 33 minutes, à 08:00 UTC
Prévision valable du 23 à 09 UTC au 24 à 09 UTC
Vent 4 kt de direction variable
Visibilité 10 km ou plus
Nuages épars à une hauteur de 3000 ft
Temporairement
du 23 à 11 UTC au 23 à 14 UTC
Vent 8 kt de sud/sud-ouest

TAF: LELL 230800Z 2309/2409 VRB04KT 9999 SCT030 TX12/2313Z TN00/2406Z TEMPO 2311/2314 21008KT

Observations et prévisions météorologiques de plus de 4000 aéroports (messages METAR et TAF).

Les stations disponibles sont représentées par des disques jaunes et rouges sur la carte.

Passer la souris dessus pour voir le nom de la station.

Cliquer dessus pour voir les observations et prévisions météorologiques.

Pour changer de carte: cliquez sur les boutons verts avec une croix noire pour zoomer, sur le bouton vert avec un tiret pour effectuer un zoom arrière, ou sur les flèches vertes pour les cartes adjacentes.


METAR-TAF: